createdAt,value
2018-12-22T00:00:19.223Z,13
2018-12-22T00:01:08.709Z,13
2018-12-22T00:02:00.127Z,12.9
2018-12-22T00:02:49.954Z,12.9
2018-12-22T00:03:39.489Z,12.9
2018-12-22T00:04:29.629Z,12.9
2018-12-22T00:05:19.294Z,12.9
2018-12-22T00:06:09.376Z,12.9
2018-12-22T00:06:59.997Z,12.9
2018-12-22T00:07:50.390Z,12.9
2018-12-22T00:08:39.502Z,12.9
2018-12-22T00:09:29.596Z,12.9
2018-12-22T00:10:19.144Z,12.9
2018-12-22T00:11:08.926Z,12.9
2018-12-22T00:11:59.674Z,12.8
2018-12-22T00:12:50.337Z,12.8
2018-12-22T00:13:40.154Z,12.8
2018-12-22T00:14:30.755Z,12.8
2018-12-22T00:32:42.192Z,12.5
2018-12-22T00:33:32.825Z,12.5
2018-12-22T00:34:23.118Z,12.5
2018-12-22T00:35:13.550Z,12.5
2018-12-22T00:36:02.710Z,12.4
2018-12-22T00:36:52.962Z,12.4
2018-12-22T00:37:43.562Z,12.4
2018-12-22T00:38:33.413Z,12.4
2018-12-22T00:39:23.377Z,12.4
2018-12-22T00:40:12.902Z,12.4
2018-12-22T00:41:02.991Z,12.4
2018-12-22T00:41:52.763Z,12.4
2018-12-22T00:42:43.493Z,12.4
2018-12-22T00:43:30.746Z,12.4
2018-12-22T00:44:23.218Z,12.4
2018-12-22T00:45:13.635Z,12.4
2018-12-22T00:46:02.650Z,12.3
2018-12-22T00:46:53.385Z,12.3
2018-12-22T00:47:42.965Z,12.3
2018-12-22T00:48:33.627Z,12.3
2018-12-22T00:49:23.340Z,12.3
2018-12-22T00:50:13.430Z,12.3
2018-12-22T00:51:02.371Z,12.3
2018-12-22T00:51:54.065Z,12.3
2018-12-22T00:52:43.086Z,12.3
2018-12-22T00:53:33.737Z,12.3
2018-12-22T00:54:25.943Z,12.3
2018-12-22T00:55:14.100Z,12.3
2018-12-22T00:56:03.885Z,12.2
2018-12-22T00:56:54.654Z,12.2
2018-12-22T00:57:43.443Z,12.2
2018-12-22T00:58:39.163Z,12.2
2018-12-22T00:59:24.026Z,12.2
2018-12-22T01:00:16.160Z,12.2
2018-12-22T01:01:04.280Z,12.2
2018-12-22T01:01:53.183Z,12.1
2018-12-22T01:02:44.946Z,12.1
2018-12-22T01:03:35.080Z,12.1
2018-12-22T01:04:25.210Z,12.1
2018-12-22T01:05:13.900Z,12.1
2018-12-22T01:06:04.711Z,12.1
2018-12-22T01:06:57.099Z,12.1
2018-12-22T01:07:44.798Z,12.1
2018-12-22T01:08:35.434Z,12.1
2018-12-22T01:09:24.941Z,12.1
2018-12-22T01:10:15.808Z,12.1
2018-12-22T01:11:05.626Z,12.1
2018-12-22T01:11:55.687Z,12.1
2018-12-22T01:12:45.707Z,12
2018-12-22T01:13:35.213Z,12
2018-12-22T01:14:25.574Z,12
2018-12-22T01:15:15.618Z,12
2018-12-22T01:16:06.218Z,12
2018-12-22T01:16:54.641Z,12
2018-12-22T01:17:45.843Z,12
2018-12-22T01:18:35.290Z,12
2018-12-22T01:19:25.387Z,12
2018-12-22T01:20:15.904Z,11.9
2018-12-22T01:21:05.736Z,12
2018-12-22T01:21:56.602Z,12
2018-12-22T01:22:45.332Z,12
2018-12-22T01:23:35.614Z,11.9
2018-12-22T01:24:26.607Z,12
2018-12-22T01:25:15.724Z,11.9
2018-12-22T01:26:06.312Z,12
2018-12-22T01:26:56.392Z,11.9
2018-12-22T01:27:47.030Z,11.9
2018-12-22T01:28:45.310Z,11.9
2018-12-22T01:29:25.792Z,11.9
2018-12-22T01:30:15.830Z,11.9
2018-12-22T01:31:07.009Z,11.9
2018-12-22T01:31:56.557Z,11.9
2018-12-22T01:32:47.373Z,11.9
2018-12-22T01:33:37.140Z,11.9
2018-12-22T01:34:26.632Z,11.9
2018-12-22T01:35:17.777Z,11.9
2018-12-22T01:36:07.021Z,11.9
2018-12-22T01:36:57.107Z,11.9
2018-12-22T01:37:46.640Z,11.9
2018-12-22T01:38:36.889Z,11.9
2018-12-22T01:39:26.752Z,11.9
2018-12-22T01:40:17.859Z,12
2018-12-22T01:41:07.879Z,12
2018-12-22T01:41:57.404Z,12.1
2018-12-22T01:42:47.779Z,12.1
2018-12-22T01:43:38.167Z,12.1
2018-12-22T01:44:27.575Z,12.2
2018-12-22T01:45:17.378Z,12.3
2018-12-22T01:46:06.773Z,12.3
2018-12-22T01:46:56.923Z,12.3
2018-12-22T01:47:47.531Z,12.3
2018-12-22T01:48:37.422Z,12.4
2018-12-22T01:49:29.979Z,12.4
2018-12-22T01:50:18.021Z,12.4
2018-12-22T01:51:08.201Z,12.4
2018-12-22T01:51:58.027Z,12.5
2018-12-22T01:52:48.179Z,12.5
2018-12-22T01:53:37.734Z,12.5
2018-12-22T01:54:27.987Z,12.6
2018-12-22T01:55:18.326Z,12.6
2018-12-22T01:56:08.336Z,12.6
2018-12-22T01:56:58.708Z,12.7
2018-12-22T01:57:48.166Z,12.7
2018-12-22T01:58:37.970Z,12.7
2018-12-22T01:59:28.643Z,12.8
2018-12-22T02:00:18.381Z,12.8
2018-12-22T02:01:08.517Z,12.9
2018-12-22T02:01:57.958Z,12.9
2018-12-22T02:02:48.843Z,12.9
2018-12-22T02:03:38.853Z,12.9
2018-12-22T02:04:28.655Z,12.9
2018-12-22T02:05:19.280Z,12.9
2018-12-22T02:06:09.336Z,12.9
2018-12-22T02:06:59.386Z,13
2018-12-22T02:07:49.408Z,13
2018-12-22T02:08:38.120Z,13
2018-12-22T02:09:29.117Z,13.1
2018-12-22T02:10:19.801Z,13.1
2018-12-22T02:11:09.670Z,13.1
2018-12-22T02:11:59.442Z,13.1
2018-12-22T02:12:49.220Z,13.1
2018-12-22T02:13:39.817Z,13.1
2018-12-22T02:14:30.177Z,13.2
2018-12-22T02:15:19.118Z,13.2
2018-12-22T02:16:09.447Z,13.2
2018-12-22T02:16:59.745Z,13.3
2018-12-22T02:17:50.392Z,13.3
2018-12-22T02:18:40.135Z,13.3
2018-12-22T02:19:29.993Z,13.3
2018-12-22T02:20:19.191Z,13.3
2018-12-22T02:21:10.172Z,13.3
2018-12-22T02:21:59.967Z,13.3
2018-12-22T02:22:50.177Z,13.4
2018-12-22T02:23:40.584Z,13.4
2018-12-22T02:24:29.738Z,13.4
2018-12-22T02:25:20.077Z,13.4
2018-12-22T02:26:09.580Z,13.4
2018-12-22T02:26:59.993Z,13.4
2018-12-22T02:27:50.517Z,13.4
2018-12-22T02:28:40.302Z,13.4
2018-12-22T02:29:31.523Z,13.4
2018-12-22T02:30:19.708Z,13.5
2018-12-22T02:31:10.426Z,13.5
2018-12-22T02:32:00.884Z,13.5
2018-12-22T02:32:51.301Z,13.5
2018-12-22T02:33:41.356Z,13.5
2018-12-22T02:34:30.523Z,13.6
2018-12-22T02:35:21.047Z,13.6
2018-12-22T02:36:11.010Z,13.6
2018-12-22T02:37:01.182Z,13.6
2018-12-22T02:37:51.042Z,13.6
2018-12-22T02:38:41.641Z,13.6
2018-12-22T02:39:31.711Z,13.6
2018-12-22T02:40:21.551Z,13.6
2018-12-22T02:41:11.309Z,13.7
2018-12-22T02:42:01.483Z,13.6
2018-12-22T02:42:51.299Z,13.7
2018-12-22T02:43:41.055Z,13.7
2018-12-22T02:44:31.947Z,13.7
2018-12-22T02:45:21.473Z,13.7
2018-12-22T02:46:11.949Z,13.8
2018-12-22T02:47:01.561Z,13.8
2018-12-22T02:47:52.281Z,13.8
2018-12-22T02:48:41.564Z,13.8
2018-12-22T02:49:31.603Z,13.8
2018-12-22T02:50:21.967Z,13.8
2018-12-22T02:51:11.303Z,13.8
2018-12-22T02:52:01.971Z,13.8
2018-12-22T02:52:52.249Z,13.8
2018-12-22T02:53:42.700Z,13.8
2018-12-22T02:54:32.693Z,13.8
2018-12-22T02:55:22.221Z,13.8
2018-12-22T02:56:12.320Z,13.9
2018-12-22T02:57:03.124Z,13.9
2018-12-22T02:57:52.316Z,13.9
2018-12-22T02:58:41.971Z,13.9
2018-12-22T02:59:32.968Z,13.9
2018-12-22T03:00:21.368Z,13.9
2018-12-22T03:01:11.987Z,13.9
2018-12-22T03:02:02.944Z,13.9
2018-12-22T03:02:52.958Z,13.9
2018-12-22T03:03:42.725Z,13.9
2018-12-22T03:04:32.557Z,13.9
2018-12-22T03:05:22.795Z,13.9
2018-12-22T03:06:13.464Z,14
2018-12-22T03:07:03.405Z,14
2018-12-22T03:07:53.256Z,14
2018-12-22T03:08:43.710Z,14
2018-12-22T03:09:33.745Z,14
2018-12-22T03:10:23.677Z,14
2018-12-22T03:11:13.599Z,14
2018-12-22T03:12:04.079Z,14
2018-12-22T03:12:53.203Z,14.1
2018-12-22T03:13:43.083Z,14.1
2018-12-22T03:14:33.459Z,14.1
2018-12-22T03:15:23.744Z,14.1
2018-12-22T03:16:13.219Z,14.1
2018-12-22T03:17:03.242Z,14.1
2018-12-22T03:17:54.014Z,14.1
2018-12-22T03:18:43.554Z,14.1
2018-12-22T03:19:33.845Z,14.1
2018-12-22T03:20:23.686Z,14.1
2018-12-22T03:21:13.139Z,14.1
2018-12-22T03:22:03.109Z,14.1
2018-12-22T03:22:53.604Z,14.1
2018-12-22T03:23:43.566Z,14.1
2018-12-22T03:24:33.739Z,14.1
2018-12-22T03:25:23.767Z,14.1
2018-12-22T03:26:14.641Z,14.1
2018-12-22T03:27:04.932Z,14.1
2018-12-22T03:27:55.440Z,14.1
2018-12-22T03:28:44.456Z,14.2
2018-12-22T03:29:34.901Z,14.2
2018-12-22T03:30:25.508Z,14.2
2018-12-22T03:31:15.267Z,14.2
2018-12-22T03:32:05.447Z,14.2
2018-12-22T03:32:54.667Z,14.2
2018-12-22T03:33:45.108Z,14.2
2018-12-22T03:34:34.603Z,14.2
2018-12-22T03:35:25.244Z,14.2
2018-12-22T03:36:15.829Z,14.2
2018-12-22T03:37:05.506Z,14.2
2018-12-22T03:37:56.266Z,14.3
2018-12-22T03:38:44.847Z,14.3
2018-12-22T03:39:34.843Z,14.3
2018-12-22T03:40:25.178Z,14.3
2018-12-22T03:41:16.156Z,14.3
2018-12-22T03:42:05.711Z,14.3
2018-12-22T03:42:55.398Z,14.3
2018-12-22T03:43:44.853Z,14.3
2018-12-22T03:44:34.419Z,14.3
2018-12-22T03:45:25.976Z,14.3
2018-12-22T03:46:15.721Z,14.3
2018-12-22T03:47:06.191Z,14.3
2018-12-22T03:47:55.185Z,14.3
2018-12-22T03:48:45.566Z,14.3
2018-12-22T03:49:36.117Z,14.3
2018-12-22T03:50:26.387Z,14.3
2018-12-22T03:51:15.890Z,14.3
2018-12-22T03:52:05.721Z,14.3
2018-12-22T03:52:56.709Z,14.3
2018-12-22T03:53:46.080Z,14.3
2018-12-22T03:54:36.454Z,14.3
2018-12-22T03:55:25.982Z,14.3
2018-12-22T03:56:16.242Z,14.3
2018-12-22T03:57:06.563Z,14.3
2018-12-22T03:57:56.054Z,14.4
2018-12-22T03:58:45.869Z,14.3
2018-12-22T03:59:37.031Z,14.3
2018-12-22T04:00:25.962Z,14.3
2018-12-22T04:01:17.439Z,14.3
2018-12-22T04:02:07.459Z,14.4
2018-12-22T04:02:56.804Z,14.4
2018-12-22T04:03:46.914Z,14.3
2018-12-22T04:04:37.804Z,14.4
2018-12-22T04:05:26.992Z,14.3
2018-12-22T04:06:17.117Z,14.4
2018-12-22T04:07:06.485Z,14.4
2018-12-22T04:07:57.324Z,14.4
2018-12-22T04:08:47.218Z,14.4
2018-12-22T04:09:37.183Z,14.4
2018-12-22T04:10:27.560Z,14.4
2018-12-22T04:11:17.546Z,14.4
2018-12-22T04:12:07.462Z,14.4
2018-12-22T04:12:56.881Z,14.4
2018-12-22T04:13:48.403Z,14.4
2018-12-22T04:14:37.683Z,14.4
2018-12-22T04:15:27.508Z,14.4
2018-12-22T04:16:16.486Z,14.4
2018-12-22T04:17:06.848Z,14.4
2018-12-22T04:17:57.775Z,14.4
2018-12-22T04:18:48.060Z,14.4
2018-12-22T04:19:36.280Z,14.4
2018-12-22T04:20:28.192Z,14.4
2018-12-22T04:21:18.572Z,14.4
2018-12-22T04:22:07.381Z,14.4
2018-12-22T04:22:58.197Z,14.4
2018-12-22T04:23:48.672Z,14.4
2018-12-22T04:24:38.782Z,14.4
2018-12-22T04:25:29.127Z,14.4
2018-12-22T04:26:17.321Z,14.4
2018-12-22T04:27:08.357Z,14.4
2018-12-22T04:27:58.966Z,14.4
2018-12-22T04:28:48.741Z,14.4
2018-12-22T04:29:42.764Z,14.4
2018-12-22T04:30:28.904Z,14.4
2018-12-22T04:31:18.902Z,14.4
2018-12-22T04:32:09.266Z,14.4
2018-12-22T04:32:58.436Z,14.4
2018-12-22T04:33:49.090Z,14.4
2018-12-22T04:34:38.903Z,14.4
2018-12-22T04:35:29.077Z,14.4
2018-12-22T04:36:18.783Z,14.5
2018-12-22T04:37:08.828Z,14.4
2018-12-22T04:37:59.362Z,14.4
2018-12-22T04:38:49.378Z,14.5
2018-12-22T04:39:39.036Z,14.4
2018-12-22T04:40:28.989Z,14.5
2018-12-22T04:41:18.793Z,14.5
2018-12-22T04:42:10.383Z,14.5
2018-12-22T04:42:59.708Z,14.5
2018-12-22T04:43:49.799Z,14.5
2018-12-22T04:44:39.494Z,14.5
2018-12-22T05:01:59.891Z,14.4
2018-12-22T05:02:49.662Z,14.4
2018-12-22T05:03:39.787Z,14.4
2018-12-22T05:04:30.016Z,14.4
2018-12-22T05:05:20.129Z,14.4
2018-12-22T05:06:10.440Z,14.4
2018-12-22T05:07:00.509Z,14.4
2018-12-22T05:07:49.979Z,14.4
2018-12-22T05:08:40.393Z,14.4
2018-12-22T05:09:30.776Z,14.3
2018-12-22T05:10:20.316Z,14.3
2018-12-22T05:11:10.325Z,14.3
2018-12-22T05:12:01.124Z,14.3
2018-12-22T05:12:49.459Z,14.3
2018-12-22T05:13:40.496Z,14.3
2018-12-22T05:14:31.124Z,14.3
2018-12-22T05:15:20.795Z,14.3
2018-12-22T05:16:11.146Z,14.3
2018-12-22T05:17:01.399Z,14.3
2018-12-22T05:17:50.892Z,14.3
2018-12-22T05:18:40.389Z,14.3
2018-12-22T05:19:30.993Z,14.3
2018-12-22T05:20:23.190Z,14.3
2018-12-22T05:21:11.683Z,14.3
2018-12-22T05:22:00.655Z,14.3
2018-12-22T05:22:51.025Z,14.2
2018-12-22T05:23:41.632Z,14.2
2018-12-22T05:24:31.397Z,14.2
2018-12-22T05:25:21.137Z,14.2
2018-12-22T05:26:10.900Z,14.2
2018-12-22T05:27:01.514Z,14.2
2018-12-22T05:27:51.292Z,14.2
2018-12-22T05:28:41.352Z,14.2
2018-12-22T05:29:31.126Z,14.2
2018-12-22T05:30:22.273Z,14.2
2018-12-22T05:31:11.543Z,14.2
2018-12-22T05:32:02.192Z,14.2
2018-12-22T05:32:52.600Z,14.1
2018-12-22T05:33:42.014Z,14.2
2018-12-22T05:34:32.756Z,14.2
2018-12-22T05:35:21.979Z,14.1
2018-12-22T05:36:12.121Z,14.1
2018-12-22T05:37:02.794Z,14.1
2018-12-22T05:37:51.969Z,14.1
2018-12-22T05:38:40.648Z,14.1
2018-12-22T05:39:33.043Z,14.1
2018-12-22T05:40:22.153Z,14.1
2018-12-22T05:41:12.496Z,14.1
2018-12-22T05:42:02.386Z,14.1
2018-12-22T05:42:52.569Z,14.1
2018-12-22T05:43:42.420Z,14.1
2018-12-22T05:44:32.540Z,14.1
2018-12-22T05:45:23.029Z,14.1
2018-12-22T05:46:12.585Z,14.1
2018-12-22T05:47:02.910Z,14.1
2018-12-22T05:47:52.453Z,14.1
2018-12-22T05:48:42.988Z,14.1
2018-12-22T05:49:31.926Z,14.1
2018-12-22T05:50:23.170Z,14.1
2018-12-22T05:51:12.985Z,14.1
2018-12-22T05:52:02.726Z,14.1
2018-12-22T05:52:53.230Z,14
2018-12-22T05:53:43.043Z,14
2018-12-22T05:54:33.965Z,14
2018-12-22T05:55:23.490Z,14
2018-12-22T05:56:14.401Z,14
2018-12-22T05:57:03.293Z,14
2018-12-22T05:57:53.863Z,14
2018-12-22T05:58:44.167Z,13.9
2018-12-22T05:59:33.455Z,14
2018-12-22T06:00:22.197Z,14
2018-12-22T06:01:13.449Z,13.9
2018-12-22T06:02:03.402Z,14
2018-12-22T06:02:54.220Z,14
2018-12-22T06:03:44.259Z,13.9
2018-12-22T06:04:33.800Z,13.9
2018-12-22T06:05:25.035Z,14
2018-12-22T06:06:13.724Z,13.9
2018-12-22T06:07:03.380Z,13.9
2018-12-22T06:07:54.025Z,13.9
2018-12-22T06:08:43.769Z,13.9
2018-12-22T06:09:34.704Z,13.9
2018-12-22T06:10:24.749Z,13.9
2018-12-22T06:11:13.944Z,13.9
2018-12-22T06:12:04.927Z,13.9
2018-12-22T06:12:53.804Z,13.9
2018-12-22T06:13:45.226Z,13.9
2018-12-22T06:14:35.686Z,13.9
2018-12-22T06:15:23.117Z,13.9
2018-12-22T06:16:13.799Z,13.9
2018-12-22T06:17:05.464Z,13.9
2018-12-22T06:17:55.079Z,13.9
2018-12-22T06:18:45.019Z,13.9
2018-12-22T06:19:34.796Z,13.9
2018-12-22T06:20:24.871Z,13.9
2018-12-22T06:21:15.173Z,13.9
2018-12-22T06:22:04.471Z,13.8
2018-12-22T06:22:54.523Z,13.9
2018-12-22T06:23:45.096Z,13.9
2018-12-22T06:24:35.286Z,13.8
2018-12-22T06:25:25.895Z,13.9
2018-12-22T06:26:15.283Z,13.8
2018-12-22T06:27:04.586Z,13.8
2018-12-22T06:27:55.618Z,13.8
2018-12-22T06:28:45.681Z,13.8
2018-12-22T06:29:36.151Z,13.8
2018-12-22T06:30:26.076Z,13.8
2018-12-22T06:31:14.748Z,13.8
2018-12-22T06:32:05.878Z,13.8
2018-12-22T06:32:55.428Z,13.8
2018-12-22T06:33:46.050Z,13.8
2018-12-22T06:34:36.065Z,13.8
2018-12-22T06:35:26.162Z,13.8
2018-12-22T06:36:16.174Z,13.8
2018-12-22T06:37:06.673Z,13.8
2018-12-22T06:37:56.336Z,13.8
2018-12-22T06:38:46.832Z,13.8
2018-12-22T06:39:36.395Z,13.8
2018-12-22T06:40:26.148Z,13.8
2018-12-22T06:41:16.685Z,13.8
2018-12-22T06:42:06.675Z,13.8
2018-12-22T06:42:56.542Z,13.8
2018-12-22T06:43:46.172Z,13.8
2018-12-22T06:44:37.075Z,13.8
2018-12-22T06:45:26.627Z,13.8
2018-12-22T06:46:17.005Z,13.8
2018-12-22T06:47:07.765Z,13.8
2018-12-22T06:47:58.971Z,13.8
2018-12-22T06:48:46.532Z,13.8
2018-12-22T06:49:37.879Z,13.7
2018-12-22T06:50:27.414Z,13.7
2018-12-22T06:51:17.237Z,13.7
2018-12-22T06:52:07.730Z,13.7
2018-12-22T06:52:57.382Z,13.7
2018-12-22T06:53:49.942Z,13.7
2018-12-22T06:54:37.753Z,13.7
2018-12-22T06:55:27.804Z,13.7
2018-12-22T06:56:17.286Z,13.7
2018-12-22T06:57:07.306Z,13.6
2018-12-22T06:57:57.721Z,13.7
2018-12-22T06:58:48.087Z,13.6
2018-12-22T06:59:38.371Z,13.6
2018-12-22T07:00:27.323Z,13.6
2018-12-22T07:01:18.593Z,13.7
2018-12-22T07:02:08.739Z,13.7
2018-12-22T07:02:58.442Z,13.6
2018-12-22T07:03:48.321Z,13.6
2018-12-22T07:04:37.951Z,13.6
2018-12-22T07:05:27.343Z,13.6
2018-12-22T07:06:18.473Z,13.6
2018-12-22T07:07:08.297Z,13.6
2018-12-22T07:07:58.063Z,13.6
2018-12-22T07:08:48.455Z,13.6
2018-12-22T07:09:37.908Z,13.6
2018-12-22T07:10:29.186Z,13.6
2018-12-22T07:11:19.399Z,13.6
2018-12-22T07:12:08.058Z,13.6
2018-12-22T07:12:57.213Z,13.6
2018-12-22T07:13:48.240Z,13.6
2018-12-22T07:14:38.528Z,13.6
2018-12-22T07:15:28.293Z,13.6
2018-12-22T07:16:18.920Z,13.6
2018-12-22T07:17:09.068Z,13.6
2018-12-22T07:17:59.352Z,13.6
2018-12-22T07:18:48.263Z,13.6
2018-12-22T07:19:38.872Z,13.6
2018-12-22T07:20:28.602Z,13.6
2018-12-22T07:21:19.258Z,13.6
2018-12-22T07:22:08.255Z,13.6
2018-12-22T07:22:59.362Z,13.6
2018-12-22T07:23:49.657Z,13.6
2018-12-22T07:24:39.012Z,13.6
2018-12-22T07:25:29.777Z,13.6
2018-12-22T07:26:18.967Z,13.5
2018-12-22T07:27:08.982Z,13.6
2018-12-22T07:27:59.969Z,13.5
2018-12-22T07:28:49.757Z,13.5
2018-12-22T07:29:39.516Z,13.5
2018-12-22T07:30:34.632Z,13.5
2018-12-22T07:31:19.619Z,13.5
2018-12-22T07:32:09.989Z,13.5
2018-12-22T07:33:05.853Z,13.5
2018-12-22T07:33:49.804Z,13.5
2018-12-22T07:34:39.592Z,13.5
2018-12-22T07:35:30.277Z,13.5
2018-12-22T07:36:20.511Z,13.5
2018-12-22T07:37:10.573Z,13.5
2018-12-22T07:38:00.069Z,13.5
2018-12-22T07:38:51.124Z,13.5
2018-12-22T07:39:40.554Z,13.4
2018-12-22T07:40:30.131Z,13.4
2018-12-22T07:41:19.838Z,13.4
2018-12-22T07:42:10.398Z,13.4
2018-12-22T07:42:59.963Z,13.4
2018-12-22T07:43:50.256Z,13.4
2018-12-22T07:44:40.614Z,13.4
2018-12-22T07:45:30.401Z,13.4
2018-12-22T07:46:20.733Z,13.5
2018-12-22T07:47:10.738Z,13.5
2018-12-22T07:48:00.393Z,13.5
2018-12-22T07:48:51.267Z,13.6
2018-12-22T07:49:40.132Z,13.6
2018-12-22T07:50:30.728Z,13.6
2018-12-22T07:51:21.130Z,13.6
2018-12-22T07:52:10.871Z,13.6
2018-12-22T07:53:01.360Z,13.6
2018-12-22T07:53:50.870Z,13.6
2018-12-22T07:54:43.647Z,13.6
2018-12-22T07:55:31.275Z,13.6
2018-12-22T07:56:21.299Z,13.6
2018-12-22T07:57:11.877Z,13.6
2018-12-22T07:58:03.690Z,13.6
2018-12-22T07:58:51.770Z,13.6
2018-12-22T07:59:42.177Z,13.6
2018-12-22T08:00:40.073Z,13.7
2018-12-22T08:01:24.020Z,13.7
2018-12-22T08:02:11.707Z,13.7
2018-12-22T08:03:02.575Z,13.7
2018-12-22T08:03:52.217Z,13.7
2018-12-22T08:04:42.218Z,13.7
2018-12-22T08:05:40.287Z,13.8
2018-12-22T08:06:22.152Z,13.8
2018-12-22T08:07:12.050Z,13.8
2018-12-22T08:08:01.327Z,13.8
2018-12-22T08:08:52.033Z,13.8
2018-12-22T08:09:42.487Z,13.8
2018-12-22T08:10:31.810Z,13.8
2018-12-22T08:11:22.330Z,13.8
2018-12-22T08:12:12.092Z,13.8
2018-12-22T08:13:02.694Z,13.8
2018-12-22T08:13:53.022Z,13.8
2018-12-22T08:14:42.064Z,13.8
2018-12-22T08:15:32.883Z,13.8
2018-12-22T08:16:23.510Z,13.8
2018-12-22T08:17:13.009Z,13.8
2018-12-22T08:18:03.029Z,13.9
2018-12-22T08:18:53.134Z,13.9
2018-12-22T08:19:42.960Z,13.8
2018-12-22T08:20:32.734Z,13.9
2018-12-22T08:21:22.559Z,13.9
2018-12-22T08:22:14.239Z,13.9
2018-12-22T08:23:03.023Z,13.9
2018-12-22T08:23:52.698Z,13.9
2018-12-22T08:24:43.220Z,13.9
2018-12-22T08:25:33.003Z,14
2018-12-22T08:26:23.928Z,14
2018-12-22T08:27:13.106Z,14
2018-12-22T08:28:02.806Z,14
2018-12-22T08:28:53.324Z,14
2018-12-22T08:29:44.013Z,13.9
2018-12-22T08:30:33.610Z,14
2018-12-22T08:31:26.069Z,14
2018-12-22T08:32:14.296Z,14
2018-12-22T08:33:04.623Z,14.1
2018-12-22T08:33:52.848Z,14.1
2018-12-22T08:34:43.632Z,14.1
2018-12-22T08:35:34.195Z,14.1
2018-12-22T08:36:23.078Z,14.1
2018-12-22T08:37:14.650Z,14.1
2018-12-22T08:38:03.855Z,14.2
2018-12-22T08:38:54.895Z,14.3
2018-12-22T08:39:44.627Z,14.3
2018-12-22T08:40:35.130Z,14.3
2018-12-22T08:41:23.813Z,14.3
2018-12-22T08:42:14.717Z,14.3
2018-12-22T08:43:04.758Z,14.3
2018-12-22T08:43:54.620Z,14.3
2018-12-22T08:44:47.078Z,14.4
2018-12-22T08:45:34.657Z,14.4
2018-12-22T08:46:24.672Z,14.4
2018-12-22T08:47:15.817Z,14.6
2018-12-22T08:48:05.340Z,14.6
2018-12-22T08:48:54.302Z,14.6
2018-12-22T08:49:44.985Z,14.6
2018-12-22T08:50:34.985Z,14.6
2018-12-22T08:51:24.749Z,14.6
2018-12-22T08:52:15.062Z,14.5
2018-12-22T08:53:05.016Z,14.6
2018-12-22T08:53:55.464Z,14.6
2018-12-22T08:54:45.809Z,14.7
2018-12-22T08:55:35.619Z,14.8
2018-12-22T08:56:25.616Z,14.7
2018-12-22T08:57:15.125Z,14.8
2018-12-22T08:58:06.424Z,14.8
2018-12-22T08:58:56.104Z,14.6
2018-12-22T08:59:46.194Z,14.6
2018-12-22T09:00:36.211Z,14.6
2018-12-22T09:16:25.770Z,14.8
2018-12-22T09:17:16.490Z,14.9
2018-12-22T09:18:06.232Z,15
2018-12-22T09:18:56.538Z,14.9
2018-12-22T09:19:46.315Z,14.9
2018-12-22T09:20:38.465Z,14.9
2018-12-22T09:21:27.005Z,14.8
2018-12-22T09:22:16.150Z,14.8
2018-12-22T09:23:06.795Z,14.8
2018-12-22T09:23:56.900Z,14.9
2018-12-22T09:24:46.907Z,15
2018-12-22T09:25:36.684Z,15.1
2018-12-22T09:26:26.837Z,15.1
2018-12-22T09:27:16.524Z,14.9
2018-12-22T09:28:07.092Z,14.9
2018-12-22T09:28:57.225Z,14.9
2018-12-22T09:29:46.930Z,14.9
2018-12-22T09:30:36.286Z,14.9
2018-12-22T09:31:25.624Z,15
2018-12-22T09:32:17.127Z,15.1
2018-12-22T09:33:07.574Z,15.1
2018-12-22T09:33:55.637Z,15.1
2018-12-22T09:34:46.984Z,15.1
2018-12-22T09:35:37.053Z,15
2018-12-22T09:36:27.663Z,14.9
2018-12-22T09:37:18.074Z,14.9
2018-12-22T09:38:07.211Z,15
2018-12-22T09:38:56.979Z,15
2018-12-22T09:39:47.901Z,15.1
2018-12-22T09:40:37.791Z,15.2
2018-12-22T09:41:26.697Z,15.2
2018-12-22T09:42:16.787Z,15.1
2018-12-22T09:43:07.616Z,15.1
2018-12-22T09:43:57.989Z,15
2018-12-22T09:44:47.474Z,15
2018-12-22T09:45:36.898Z,15.1
2018-12-22T09:46:26.926Z,15.1
2018-12-22T09:47:17.345Z,15.3
2018-12-22T09:48:08.475Z,15.3
2018-12-22T09:48:58.271Z,15.3
2018-12-22T09:49:48.028Z,15.3
2018-12-22T09:50:37.858Z,15.2
2018-12-22T09:51:28.125Z,15.1
2018-12-22T09:52:17.935Z,15.1
2018-12-22T09:53:11.293Z,15.1
2018-12-22T09:53:59.252Z,15.2
2018-12-22T09:54:48.893Z,15.3
2018-12-22T09:55:39.025Z,15.3
2018-12-22T09:56:29.107Z,15.3
2018-12-22T09:57:18.552Z,15.3
2018-12-22T09:58:08.873Z,15.2
2018-12-22T09:58:59.420Z,15.2
2018-12-22T09:59:48.660Z,15.1
2018-12-22T10:00:38.252Z,15.2
2018-12-22T10:01:28.582Z,15.2
2018-12-22T10:02:18.352Z,15.3
2018-12-22T10:03:09.235Z,15.4
2018-12-22T10:03:58.517Z,15.3
2018-12-22T10:04:48.314Z,15.3
2018-12-22T10:05:38.953Z,15.3
2018-12-22T10:06:29.162Z,15.2
2018-12-22T10:07:18.789Z,15.2
2018-12-22T10:08:10.070Z,15.3
2018-12-22T10:08:58.760Z,15.3
2018-12-22T10:09:49.922Z,15.3
2018-12-22T10:10:39.396Z,15.4
2018-12-22T10:11:29.173Z,15.5
2018-12-22T10:12:19.570Z,15.6
2018-12-22T10:13:09.599Z,15.6
2018-12-22T10:14:00.009Z,15.6
2018-12-22T10:14:49.409Z,15.4
2018-12-22T10:15:39.849Z,15.3
2018-12-22T10:16:30.489Z,15.3
2018-12-22T10:17:20.132Z,15.3
2018-12-22T10:18:10.874Z,15.3
2018-12-22T10:19:00.329Z,15.2
2018-12-22T10:19:50.659Z,15.2
2018-12-22T10:20:39.821Z,15.2
2018-12-22T10:21:30.681Z,15.2
2018-12-22T10:22:23.066Z,15.1
2018-12-22T10:23:10.768Z,15.1
2018-12-22T10:24:00.575Z,15.1
2018-12-22T10:24:50.423Z,15.1
2018-12-22T10:25:41.356Z,15.1
2018-12-22T10:26:31.283Z,15.1
2018-12-22T10:27:23.040Z,15.1
2018-12-22T10:28:11.168Z,15.1
2018-12-22T10:29:01.209Z,15.1
2018-12-22T10:29:49.886Z,15
2018-12-22T10:30:41.020Z,14.9
2018-12-22T10:31:31.408Z,14.9
2018-12-22T10:32:20.304Z,14.9
2018-12-22T10:33:10.932Z,14.9
2018-12-22T10:34:01.942Z,14.9
2018-12-22T10:34:51.130Z,14.9
2018-12-22T10:35:41.245Z,14.8
2018-12-22T10:36:31.995Z,14.9
2018-12-22T10:37:21.217Z,14.8
2018-12-22T10:38:10.717Z,14.8
2018-12-22T10:39:01.865Z,14.8
2018-12-22T10:39:51.693Z,14.9
2018-12-22T10:40:41.552Z,14.8
2018-12-22T10:41:30.956Z,14.8
2018-12-22T10:42:21.480Z,14.8
2018-12-22T10:43:10.615Z,14.8
2018-12-22T10:44:01.837Z,14.8
2018-12-22T10:44:51.800Z,14.8
2018-12-22T10:45:41.784Z,14.8
2018-12-22T10:46:31.929Z,14.8
2018-12-22T10:47:22.462Z,14.8
2018-12-22T10:48:11.857Z,14.8
2018-12-22T10:49:02.562Z,14.7
2018-12-22T10:49:52.454Z,14.7
2018-12-22T10:50:42.959Z,14.7
2018-12-22T10:51:32.834Z,14.7
2018-12-22T10:52:21.609Z,14.7
2018-12-22T10:53:11.859Z,14.7
2018-12-22T10:54:02.486Z,14.7
2018-12-22T10:54:52.736Z,14.6
2018-12-22T10:55:42.560Z,14.6
2018-12-22T10:56:31.489Z,14.6
2018-12-22T10:57:23.188Z,14.6
2018-12-22T10:58:12.187Z,14.6
2018-12-22T10:59:02.843Z,14.6
2018-12-22T10:59:52.533Z,14.6
2018-12-22T11:00:42.668Z,14.6
2018-12-22T11:01:34.360Z,14.6
2018-12-22T11:02:24.705Z,14.6
2018-12-22T11:03:13.335Z,14.6
2018-12-22T11:04:02.918Z,14.6
2018-12-22T11:04:52.547Z,14.6
2018-12-22T11:05:43.019Z,14.6
2018-12-22T11:06:32.709Z,14.6
2018-12-22T11:07:22.519Z,14.6
2018-12-22T11:08:12.844Z,14.6
2018-12-22T11:09:03.012Z,14.6
2018-12-22T11:09:52.687Z,14.6
2018-12-22T11:10:43.652Z,14.6
2018-12-22T11:11:33.359Z,14.6
2018-12-22T11:12:23.139Z,14.6
2018-12-22T11:13:13.497Z,14.6
2018-12-22T11:14:03.059Z,14.6
2018-12-22T11:14:53.394Z,14.6
2018-12-22T11:15:43.543Z,14.5
2018-12-22T11:16:33.251Z,14.6
2018-12-22T11:17:23.032Z,14.5
2018-12-22T11:18:13.274Z,14.5
2018-12-22T11:19:04.120Z,14.5
2018-12-22T11:19:54.479Z,14.5
2018-12-22T11:20:43.993Z,14.5
2018-12-22T11:21:34.364Z,14.5
2018-12-22T11:22:24.837Z,14.4
2018-12-22T11:23:23.759Z,14.4
2018-12-22T11:24:07.035Z,14.4
2018-12-22T11:24:54.502Z,14.4
2018-12-22T11:25:44.353Z,14.4
2018-12-22T11:26:34.800Z,14.4
2018-12-22T11:27:25.183Z,14.4
2018-12-22T11:28:14.920Z,14.4
2018-12-22T11:29:04.167Z,14.4
2018-12-22T11:29:55.054Z,14.4
2018-12-22T11:30:44.673Z,14.4
2018-12-22T11:31:43.510Z,14.4
2018-12-22T11:32:25.237Z,14.4
2018-12-22T11:33:14.933Z,14.4
2018-12-22T11:34:04.086Z,14.4
2018-12-22T11:34:54.760Z,14.4
2018-12-22T11:35:44.800Z,14.4
2018-12-22T11:36:34.204Z,14.4
2018-12-22T11:37:26.007Z,14.4
2018-12-22T11:38:15.193Z,14.4
2018-12-22T11:39:05.045Z,14.4
2018-12-22T11:39:55.260Z,14.4
2018-12-22T11:40:45.624Z,14.4
2018-12-22T11:41:35.134Z,14.4
2018-12-22T11:42:26.680Z,14.3
2018-12-22T11:43:16.235Z,14.3
2018-12-22T11:44:04.902Z,14.3
2018-12-22T11:44:56.090Z,14.4
2018-12-22T11:45:46.567Z,14.3
2018-12-22T11:46:36.001Z,14.3
2018-12-22T11:47:26.849Z,14.3
2018-12-22T11:48:16.882Z,14.3
2018-12-22T11:49:06.085Z,14.3
2018-12-22T11:49:56.269Z,14.3
2018-12-22T11:50:47.262Z,14.3
2018-12-22T11:51:36.127Z,14.3
2018-12-22T11:52:26.341Z,14.3
2018-12-22T11:53:16.709Z,14.3
2018-12-22T11:54:06.425Z,14.3
2018-12-22T11:54:56.767Z,14.3
2018-12-22T11:55:46.264Z,14.3
2018-12-22T11:56:36.682Z,14.3
2018-12-22T11:57:26.771Z,14.3
2018-12-22T11:58:17.231Z,14.3